Time;durP1;ratioP1;P1;durP2;ratioP2;P2;SDS_P1;SDS_P2;PMS_P1;PMS_P2;Temp;Humidity;BMP_temperature;BMP_pressure;BME280_temperature;BME280_humidity;BME280_pressure;Samples;Min_cycle;Max_cycle;Signal;HPM_P1;HPM_P2
2022/05/05 00:01:21;;;;;;;7.03;3.60;;;15.30;81.80;;;;;;5028079;28;20029;-75
2022/05/05 00:03:47;;;;;;;6.13;3.53;;;15.40;82.00;;;;;;5046187;28;20032;-76
2022/05/05 00:06:12;;;;;;;6.63;3.30;;;15.40;82.10;;;;;;5028159;28;20459;-75
2022/05/05 00:08:38;;;;;;;6.13;3.35;;;15.50;82.20;;;;;;5047177;28;20044;-76
2022/05/05 00:16:32;;;;;;;6.28;3.50;;;15.30;82.50;;;;;;5046109;28;20430;-76
2022/05/05 00:18:57;;;;;;;5.95;3.38;;;15.30;82.50;;;;;;5030479;28;20029;-77
2022/05/05 00:21:23;;;;;;;6.40;3.38;;;15.30;82.50;;;;;;5032760;28;20029;-76
2022/05/05 00:23:48;;;;;;;5.82;3.53;;;15.30;82.60;;;;;;5032787;28;20032;-76
2022/05/05 00:26:14;;;;;;;6.47;3.67;;;15.30;82.60;;;;;;5032222;28;20025;-76
2022/05/05 00:28:39;;;;;;;6.80;3.30;;;15.30;82.70;;;;;;5050246;28;20071;-76
2022/05/05 00:31:05;;;;;;;6.53;3.17;;;15.30;83.20;;;;;;5032911;28;20485;-76
2022/05/05 00:33:30;;;;;;;6.63;3.53;;;15.30;82.70;;;;;;5032811;28;20029;-76
2022/05/05 00:35:56;;;;;;;5.82;3.60;;;15.30;82.70;;;;;;5050467;28;20049;-76
2022/05/05 00:38:21;;;;;;;6.22;3.58;;;15.20;82.60;;;;;;5032606;28;20029;-76
2022/05/05 00:40:47;;;;;;;6.00;3.38;;;15.30;82.70;;;;;;5050714;28;20473;-76
2022/05/05 00:43:12;;;;;;;5.50;3.20;;;15.30;82.70;;;;;;5032605;28;20040;-76
2022/05/05 00:45:38;;;;;;;7.45;3.50;;;15.30;82.60;;;;;;5031925;28;20029;-75
2022/05/05 00:48:08;;;;;;;6.35;3.30;;;15.20;82.70;;;;;;5049435;28;20110;-77
2022/05/05 00:50:36;;;;;;;6.20;3.20;;;15.30;82.70;;;;;;5032332;28;20029;-76
2022/05/05 00:53:03;;;;;;;6.50;3.35;;;15.30;82.80;;;;;;5050365;28;20051;-77
2022/05/05 00:55:32;;;;;;;5.97;3.60;;;15.20;82.70;;;;;;5049906;28;20035;-76
2022/05/05 00:57:58;;;;;;;7.55;3.22;;;15.20;82.60;;;;;;5032408;28;20116;-76
2022/05/05 01:00:23;;;;;;;6.00;3.28;;;15.30;82.50;;;;;;5031935;28;20120;-76
2022/05/05 01:02:51;;;;;;;6.63;3.00;;;15.30;82.30;;;;;;5031841;28;20120;-76
2022/05/05 01:05:16;;;;;;;6.50;3.15;;;15.30;82.10;;;;;;5049517;28;20048;-77
2022/05/05 01:07:42;;;;;;;6.25;3.50;;;15.40;82.10;;;;;;5032407;28;20099;-76
2022/05/05 01:10:08;;;;;;;6.50;3.20;;;15.40;81.90;;;;;;5032152;28;20355;-76
2022/05/05 01:12:33;;;;;;;5.97;3.20;;;15.40;81.80;;;;;;5050122;28;20025;-77
2022/05/05 01:15:00;;;;;;;5.75;2.90;;;15.40;82.00;;;;;;5049798;28;20143;-76
2022/05/05 01:17:28;;;;;;;6.97;3.38;;;15.40;82.10;;;;;;5031869;28;20474;-76
2022/05/05 01:19:54;;;;;;;6.70;3.17;;;15.30;82.10;;;;;;5039608;28;20036;-76
2022/05/05 01:22:19;;;;;;;5.32;2.88;;;15.30;82.20;;;;;;5031448;28;20025;-76
2022/05/05 01:30:13;;;;;;;7.35;3.13;;;15.30;82.50;;;;;;5048767;28;20044;-76
2022/05/05 01:32:38;;;;;;;5.25;2.97;;;15.30;82.50;;;;;;5049042;28;20058;-76
2022/05/05 01:35:05;;;;;;;5.75;3.25;;;15.20;82.50;;;;;;5048782;28;20032;-75
2022/05/05 01:37:30;;;;;;;5.40;3.20;;;15.20;83.10;;;;;;5049321;28;20029;-76
2022/05/05 01:39:56;;;;;;;5.57;3.38;;;15.20;82.60;;;;;;5048900;28;20422;-76
2022/05/05 01:42:22;;;;;;;6.78;3.35;;;15.20;82.70;;;;;;5031652;28;20110;-76
2022/05/05 01:44:48;;;;;;;6.15;3.42;;;15.20;82.70;;;;;;5030852;28;20494;-76
2022/05/05 01:47:13;;;;;;;5.95;3.58;;;15.20;82.70;;;;;;5031443;28;20119;-76
2022/05/05 01:49:38;;;;;;;6.40;3.47;;;15.20;82.60;;;;;;5031711;28;20035;-76
2022/05/05 01:52:08;;;;;;;6.13;3.50;;;15.20;82.60;;;;;;5031068;28;20492;-76
2022/05/05 01:54:34;;;;;;;6.40;3.20;;;15.20;82.60;;;;;;5049107;28;20048;-76
2022/05/05 01:57:00;;;;;;;6.13;3.30;;;15.20;82.60;;;;;;5048882;28;20462;-76
2022/05/05 01:59:25;;;;;;;5.00;3.20;;;15.20;82.60;;;;;;5031231;28;20029;-76
2022/05/05 02:01:51;;;;;;;5.85;3.13;;;15.20;82.60;;;;;;5048658;28;20032;-77
2022/05/05 02:04:16;;;;;;;6.15;3.67;;;15.20;82.60;;;;;;5031151;28;20395;-76
2022/05/05 02:06:41;;;;;;;5.45;3.00;;;15.20;82.60;;;;;;5030189;28;20047;-77
2022/05/05 02:09:07;;;;;;;4.78;2.80;;;15.20;82.60;;;;;;5030858;28;20852;-76
2022/05/05 02:11:32;;;;;;;5.30;2.90;;;15.20;82.50;;;;;;5030857;28;20104;-76
2022/05/05 02:13:58;;;;;;;5.03;2.83;;;15.20;82.40;;;;;;5030875;28;20131;-77
2022/05/05 02:16:23;;;;;;;6.28;3.20;;;15.30;82.20;;;;;;5048046;28;20079;-76
2022/05/05 02:18:49;;;;;;;5.05;2.78;;;15.30;82.10;;;;;;5027375;28;20040;-77
2022/05/05 02:21:16;;;;;;;5.78;3.20;;;15.30;82.00;;;;;;5048411;28;20064;-76
2022/05/05 02:23:42;;;;;;;5.78;3.35;;;15.40;81.90;;;;;;5030525;28;20120;-77
2022/05/05 02:26:07;;;;;;;6.00;3.38;;;15.40;81.80;;;;;;5030152;28;20143;-77
2022/05/05 02:28:33;;;;;;;6.53;3.13;;;15.20;81.70;;;;;;5030943;28;20032;-78
2022/05/05 02:30:58;;;;;;;6.50;3.67;;;15.30;81.90;;;;;;5031836;28;20025;-76
2022/05/05 02:33:24;;;;;;;5.07;3.00;;;15.30;82.00;;;;;;5049982;28;20116;-77
2022/05/05 02:38:42;;;;;;;5.90;3.10;;;15.30;82.10;;;;;;5031451;28;20021;-79
2022/05/05 02:38:44;;;;;;;6.47;3.38;;;15.20;82.10;;;;;;5049853;28;20032;-77
2022/05/05 02:41:09;;;;;;;6.22;2.92;;;15.30;82.30;;;;;;5049333;28;20032;-77
2022/05/05 02:43:35;;;;;;;5.50;3.20;;;15.20;82.40;;;;;;5031722;28;20029;-77
2022/05/05 02:46:00;;;;;;;5.30;2.90;;;15.20;82.50;;;;;;5049397;28;20112;-79
2022/05/05 02:48:26;;;;;;;8.07;3.10;;;15.20;82.40;;;;;;5031162;28;20029;-77
2022/05/05 02:50:51;;;;;;;6.40;3.35;;;15.30;82.50;;;;;;5031661;28;20500;-77
2022/05/05 02:56:01;;;;;;;6.30;3.17;;;15.20;82.60;;;;;;5049086;28;20448;-78
2022/05/05 02:58:28;;;;;;;6.07;3.10;;;15.10;82.60;;;;;;5030940;28;20029;-78
2022/05/05 03:00:54;;;;;;;6.55;3.28;;;15.20;82.60;;;;;;5031311;28;20496;-78
2022/05/05 03:03:19;;;;;;;6.00;3.40;;;15.20;82.60;;;;;;5031329;28;20115;-78
2022/05/05 03:05:45;;;;;;;6.15;3.50;;;15.10;82.60;;;;;;5030986;28;20029;-77
2022/05/05 03:08:11;;;;;;;5.55;3.17;;;15.10;82.60;;;;;;5049051;28;20029;-78
2022/05/05 03:10:36;;;;;;;5.18;3.22;;;15.20;82.60;;;;;;5031235;28;20049;-77
2022/05/05 03:13:02;;;;;;;5.35;3.20;;;15.20;82.60;;;;;;5030601;28;20040;-78
2022/05/05 03:15:28;;;;;;;5.63;3.20;;;15.10;82.50;;;;;;5048695;28;20053;-78
2022/05/05 03:17:54;;;;;;;5.78;3.10;;;15.10;82.60;;;;;;5030838;28;20112;-77
2022/05/05 03:20:19;;;;;;;5.88;3.08;;;15.10;82.60;;;;;;5030896;28;20036;-78
2022/05/05 03:22:45;;;;;;;6.55;3.63;;;15.20;82.60;;;;;;5030898;28;20441;-80
2022/05/05 03:25:10;;;;;;;6.15;3.20;;;15.10;82.50;;;;;;5031095;28;20029;-77
2022/05/05 03:27:37;;;;;;;6.13;2.95;;;15.20;82.50;;;;;;5030031;28;20029;-77
2022/05/05 03:30:04;;;;;;;5.63;3.15;;;15.20;82.40;;;;;;5030731;28;20533;-78
2022/05/05 03:32:32;;;;;;;5.40;3.00;;;15.20;82.20;;;;;;5048486;28;20092;-78
2022/05/05 03:34:58;;;;;;;5.25;2.90;;;15.20;82.10;;;;;;5030632;28;20116;-78
2022/05/05 03:37:27;;;;;;;5.25;2.95;;;15.30;81.90;;;;;;5048357;28;20025;-79
2022/05/05 03:39:53;;;;;;;5.85;3.00;;;15.30;81.90;;;;;;5030619;28;20063;-79
2022/05/05 03:42:18;;;;;;;6.53;3.40;;;15.30;81.80;;;;;;5049191;28;20045;-78
2022/05/05 03:44:44;;;;;;;5.95;3.30;;;15.30;81.80;;;;;;5048184;28;20070;-77
2022/05/05 03:47:09;;;;;;;5.70;3.10;;;15.20;81.80;;;;;;5030640;28;20036;-77
2022/05/05 03:49:34;;;;;;;5.00;3.10;;;15.20;82.00;;;;;;5048279;28;20032;-78
2022/05/05 03:52:00;;;;;;;5.35;2.85;;;15.20;82.10;;;;;;5030696;28;20584;-78
2022/05/05 03:54:29;;;;;;;5.03;2.95;;;15.20;82.20;;;;;;5048343;28;20116;-77
2022/05/05 03:56:54;;;;;;;5.03;3.00;;;15.20;82.30;;;;;;5030354;28;20545;-77
2022/05/05 03:59:22;;;;;;;5.68;3.10;;;15.20;82.40;;;;;;5030686;28;20136;-76
2022/05/05 04:01:48;;;;;;;6.28;3.25;;;15.10;82.40;;;;;;5030262;28;20033;-77
2022/05/05 04:04:14;;;;;;;5.25;3.00;;;15.10;82.50;;;;;;5047808;28;20036;-77
2022/05/05 04:06:39;;;;;;;5.55;3.30;;;15.10;82.40;;;;;;5030377;28;20021;-78
2022/05/05 04:09:05;;;;;;;4.80;3.10;;;15.10;82.50;;;;;;5048005;28;20037;-77
2022/05/05 04:11:30;;;;;;;5.03;3.20;;;15.10;82.50;;;;;;5048190;28;20024;-77
2022/05/05 04:13:56;;;;;;;5.82;3.13;;;15.10;82.50;;;;;;5030041;28;20028;-77
2022/05/05 04:16:21;;;;;;;5.68;3.53;;;15.10;82.50;;;;;;5047735;28;20086;-79
2022/05/05 04:18:47;;;;;;;5.70;3.13;;;15.10;82.50;;;;;;5044822;28;20096;-79
2022/05/05 04:21:13;;;;;;;5.68;3.28;;;15.10;82.50;;;;;;5047999;28;20028;-79
2022/05/05 04:23:39;;;;;;;5.70;3.30;;;15.10;82.50;;;;;;5030221;28;20029;-78
2022/05/05 04:26:05;;;;;;;6.05;3.20;;;15.10;82.50;;;;;;5047491;28;20024;-78
2022/05/05 04:28:31;;;;;;;5.40;3.35;;;15.10;82.50;;;;;;5064135;28;20028;-78
2022/05/05 04:30:57;;;;;;;6.03;2.85;;;15.10;82.50;;;;;;5034966;28;20021;-78
2022/05/05 04:33:23;;;;;;;5.38;3.25;;;15.10;82.40;;;;;;5029969;28;20082;-80
2022/05/05 04:35:49;;;;;;;5.45;3.40;;;15.10;82.50;;;;;;5029517;28;20021;-79
2022/05/05 04:38:15;;;;;;;5.47;3.25;;;15.10;82.50;;;;;;5029934;28;20060;-78
2022/05/05 04:40:41;;;;;;;6.03;3.10;;;15.10;82.40;;;;;;5047810;28;20025;-78
2022/05/05 04:43:07;;;;;;;4.38;2.65;;;15.10;82.30;;;;;;5029979;28;20497;-78
2022/05/05 04:45:32;;;;;;;4.70;2.90;;;15.10;82.20;;;;;;5039247;28;20487;-77
2022/05/05 04:47:58;;;;;;;5.53;2.90;;;15.20;82.10;;;;;;5025391;28;20029;-77
2022/05/05 04:50:24;;;;;;;6.75;3.17;;;15.20;81.90;;;;;;5031137;28;20025;-78
2022/05/05 04:52:51;;;;;;;5.28;3.30;;;15.20;81.80;;;;;;5025572;28;20551;-80
2022/05/05 04:55:16;;;;;;;5.15;2.97;;;15.20;81.70;;;;;;5050524;28;20386;-78
2022/05/05 04:57:42;;;;;;;5.30;3.08;;;15.30;81.60;;;;;;5051297;28;20040;-77
2022/05/05 05:00:09;;;;;;;5.15;3.15;;;15.20;81.60;;;;;;5025514;28;20055;-77
2022/05/05 05:02:35;;;;;;;5.13;3.08;;;15.20;81.60;;;;;;5036768;28;20565;-79
2022/05/05 05:05:00;;;;;;;5.07;2.97;;;15.20;81.80;;;;;;5044320;28;20040;-77
2022/05/05 05:08:55;;;;;;;;;;;;;;;;;;;;;
2022/05/05 05:11:45;;;;;;;5.75;3.15;;;15.10;82.00;;;;;;4882640;29;20525;-78
2022/05/05 05:14:26;;;;;;;5.95;3.47;;;15.10;82.10;;;;;;4928825;28;20173;-78
2022/05/05 05:20:38;;;;;;;;;;;;;;;;;;;;;
2022/05/05 05:23:30;;;;;;;6.10;3.40;;;15.10;82.30;;;;;;5048123;28;20676;-76
2022/05/05 05:26:02;;;;;;;5.85;3.55;;;15.10;82.30;;;;;;5033962;28;20025;-77
2022/05/05 05:28:27;;;;;;;5.30;3.28;;;15.20;82.30;;;;;;5053076;28;20036;-76
2022/05/05 05:30:58;;;;;;;6.45;3.25;;;15.10;82.30;;;;;;5052137;28;20497;-79
2022/05/05 05:33:45;;;;;;;6.03;2.90;;;15.10;82.30;;;;;;5033059;28;20773;-77
2022/05/05 05:36:44;;;;;;;5.30;3.47;;;15.10;82.30;;;;;;5033324;28;20095;-79
2022/05/05 05:39:24;;;;;;;5.50;3.60;;;15.20;82.30;;;;;;5034098;28;20504;-78
2022/05/05 05:42:00;;;;;;;4.67;2.83;;;15.10;82.20;;;;;;5033520;28;20442;-78
2022/05/05 05:44:31;;;;;;;6.18;3.58;;;15.10;82.20;;;;;;5052447;28;20039;-77
2022/05/05 05:47:05;;;;;;;5.13;3.03;;;15.10;82.30;;;;;;5032689;28;20494;-78
2022/05/05 05:49:33;;;;;;;5.35;3.30;;;15.00;82.20;;;;;;5032767;28;20061;-78
2022/05/05 05:52:07;;;;;;;4.68;3.05;;;15.10;82.20;;;;;;5032995;28;20474;-81
2022/05/05 05:54:33;;;;;;;5.80;3.33;;;15.10;82.10;;;;;;5032830;28;20723;-77
2022/05/05 05:56:58;;;;;;;4.30;2.90;;;15.30;82.20;;;;;;5032210;28;20029;-76
2022/05/05 05:59:24;;;;;;;5.60;3.30;;;15.10;82.00;;;;;;5050268;28;20541;-76
2022/05/05 06:04:33;;;;;;;4.65;3.05;;;15.20;81.80;;;;;;5050649;28;20707;-76
2022/05/05 06:06:59;;;;;;;5.43;3.22;;;15.20;81.60;;;;;;5049642;28;20037;-77
2022/05/05 06:09:25;;;;;;;5.15;2.90;;;15.20;81.50;;;;;;5032498;28;20032;-77
2022/05/05 06:11:50;;;;;;;5.35;2.90;;;15.30;81.30;;;;;;5050113;28;20453;-76
2022/05/05 06:14:16;;;;;;;5.07;3.30;;;15.30;81.20;;;;;;5032645;28;20044;-76
2022/05/05 06:16:41;;;;;;;6.05;3.40;;;15.30;81.20;;;;;;5048759;28;20039;-75
2022/05/05 06:19:07;;;;;;;5.07;2.92;;;15.30;81.20;;;;;;5032517;28;20383;-77
2022/05/05 06:21:32;;;;;;;5.43;3.13;;;15.20;81.20;;;;;;5050048;28;20047;-77
2022/05/05 06:23:58;;;;;;;6.13;3.42;;;15.30;81.40;;;;;;5031945;28;20029;-76
2022/05/05 06:26:23;;;;;;;5.18;3.00;;;15.20;81.40;;;;;;5031493;28;20064;-77
2022/05/05 06:28:50;;;;;;;6.43;3.60;;;15.30;81.50;;;;;;5031753;28;20179;-75
2022/05/05 06:31:16;;;;;;;5.40;3.42;;;15.20;81.40;;;;;;5049956;28;20021;-76
2022/05/05 06:33:43;;;;;;;4.82;3.17;;;15.20;81.50;;;;;;5031884;28;20075;-77
2022/05/05 06:36:08;;;;;;;4.70;3.10;;;15.20;81.40;;;;;;5031658;28;20021;-77
2022/05/05 06:38:34;;;;;;;5.32;3.20;;;15.20;81.50;;;;;;5031624;28;20079;-76
2022/05/05 06:41:00;;;;;;;5.32;3.20;;;15.20;81.50;;;;;;5031687;28;20097;-76
2022/05/05 06:43:26;;;;;;;5.88;3.63;;;15.20;81.50;;;;;;5049248;28;20029;-77
2022/05/05 06:45:53;;;;;;;5.05;3.22;;;15.20;81.40;;;;;;5031260;28;20425;-77
2022/05/05 06:48:19;;;;;;;5.03;3.10;;;15.30;81.30;;;;;;5049746;28;20478;-76
2022/05/05 06:50:44;;;;;;;4.80;2.95;;;15.20;81.20;;;;;;5049753;28;20056;-77
2022/05/05 06:53:10;;;;;;;5.25;3.15;;;15.30;81.20;;;;;;5030999;28;20540;-77
2022/05/05 06:55:35;;;;;;;4.57;3.00;;;15.30;81.20;;;;;;5031485;28;20029;-77
2022/05/05 06:58:00;;;;;;;5.55;3.42;;;15.30;81.10;;;;;;5031804;28;20029;-79
2022/05/05 07:01:51;;;;;;;5.50;3.20;;;15.30;81.10;;;;;;5032688;28;20148;-77
2022/05/05 07:03:14;;;;;;;5.97;3.22;;;15.30;81.10;;;;;;5048640;28;20027;-77
2022/05/05 07:05:40;;;;;;;5.60;3.35;;;15.30;81.00;;;;;;5030904;28;20032;-77
2022/05/05 07:08:06;;;;;;;5.18;3.28;;;15.30;80.90;;;;;;5048596;28;20039;-76
2022/05/05 07:13:15;;;;;;;5.47;3.15;;;15.40;80.70;;;;;;5049266;28;20078;-76
2022/05/05 07:15:41;;;;;;;6.30;3.83;;;15.40;80.50;;;;;;5048339;28;20025;-75
2022/05/05 07:18:06;;;;;;;5.60;3.42;;;15.50;80.20;;;;;;5048791;28;20120;-76
2022/05/05 07:20:32;;;;;;;5.88;3.47;;;15.50;79.90;;;;;;5049040;28;20437;-76
2022/05/05 07:22:58;;;;;;;5.55;3.28;;;15.60;79.70;;;;;;5030812;28;20473;-76
2022/05/05 07:25:24;;;;;;;5.82;3.25;;;15.70;79.50;;;;;;5030724;28;20079;-76
2022/05/05 07:27:49;;;;;;;5.60;3.50;;;15.70;79.30;;;;;;5030510;28;20083;-76
2022/05/05 07:30:16;;;;;;;5.85;3.53;;;15.70;79.20;;;;;;5030686;28;20021;-78
2022/05/05 07:32:41;;;;;;;5.45;3.10;;;15.70;79.20;;;;;;5049390;28;20055;-78
2022/05/05 07:35:08;;;;;;;5.13;3.28;;;15.60;79.10;;;;;;5031064;28;20056;-76
2022/05/05 07:37:34;;;;;;;5.22;3.22;;;15.70;79.20;;;;;;5030771;28;20079;-76
2022/05/05 07:40:00;;;;;;;5.25;3.10;;;15.70;79.20;;;;;;5030833;28;20017;-76
2022/05/05 07:42:25;;;;;;;5.20;3.10;;;15.70;79.30;;;;;;5030998;28;20036;-77
2022/05/05 07:44:51;;;;;;;5.40;3.08;;;15.70;79.30;;;;;;5029252;28;20040;-77
2022/05/05 07:47:16;;;;;;;6.70;3.45;;;15.70;79.30;;;;;;5011868;28;20033;-77
2022/05/05 07:49:42;;;;;;;5.72;2.97;;;15.70;79.30;;;;;;5011294;28;20026;-77
2022/05/05 07:52:07;;;;;;;5.70;3.25;;;15.70;79.30;;;;;;5011182;28;20026;-75
2022/05/05 07:54:39;;;;;;;5.30;3.13;;;15.70;79.40;;;;;;5028487;28;20083;-76
2022/05/05 07:57:12;;;;;;;5.65;3.17;;;15.70;79.30;;;;;;5028385;28;20029;-76
2022/05/05 07:59:38;;;;;;;6.82;3.15;;;15.70;79.30;;;;;;5033626;28;20068;-80
2022/05/05 08:02:08;;;;;;;6.15;3.30;;;15.70;79.30;;;;;;5014289;28;20029;-78
2022/05/05 08:04:34;;;;;;;5.13;3.10;;;15.70;79.30;;;;;;5011027;28;20498;-76
2022/05/05 08:07:00;;;;;;;5.30;3.13;;;15.80;79.30;;;;;;5010372;28;20037;-75
2022/05/05 08:09:26;;;;;;;5.22;3.13;;;15.80;79.20;;;;;;5028587;28;20029;-76
2022/05/05 08:11:51;;;;;;;5.97;3.47;;;15.80;79.20;;;;;;5010837;28;20021;-76
2022/05/05 08:14:17;;;;;;;6.53;3.40;;;15.80;79.20;;;;;;5028912;28;20712;-77
2022/05/05 08:16:43;;;;;;;5.72;3.20;;;15.80;79.20;;;;;;5028390;28;20096;-77
2022/05/05 08:19:08;;;;;;;5.05;3.13;;;15.90;79.20;;;;;;5010598;28;20479;-76
2022/05/05 08:21:34;;;;;;;5.40;3.20;;;15.80;79.10;;;;;;5010800;28;20030;-75
2022/05/05 08:29:27;;;;;;;5.00;3.13;;;15.80;79.10;;;;;;5028836;28;20062;-76
2022/05/05 08:31:53;;;;;;;5.63;3.30;;;15.90;79.00;;;;;;5028871;28;20656;-76
2022/05/05 08:34:19;;;;;;;5.35;3.53;;;15.90;78.90;;;;;;5028817;28;20765;-76
2022/05/05 08:36:44;;;;;;;6.15;3.55;;;16.00;78.80;;;;;;5010411;28;20022;-76
2022/05/05 08:39:10;;;;;;;4.78;3.17;;;16.00;78.60;;;;;;5028481;28;20029;-76
2022/05/05 08:41:39;;;;;;;5.28;3.10;;;16.00;78.40;;;;;;5014432;28;20423;-75
2022/05/05 08:44:04;;;;;;;5.40;3.20;;;16.10;78.30;;;;;;5018472;28;20497;-76
2022/05/05 08:46:33;;;;;;;5.30;3.50;;;16.10;78.20;;;;;;5035449;28;20103;-77
2022/05/05 08:49:03;;;;;;;6.15;3.40;;;16.10;78.00;;;;;;5018417;28;20040;-76
2022/05/05 08:51:36;;;;;;;5.30;3.30;;;16.20;77.90;;;;;;5018074;28;20037;-76
2022/05/05 08:54:05;;;;;;;5.88;3.40;;;16.20;77.90;;;;;;5035917;28;20048;-76
2022/05/05 08:56:31;;;;;;;5.63;3.30;;;16.20;77.90;;;;;;5017607;28;20032;-77
2022/05/05 08:58:56;;;;;;;6.20;3.20;;;16.10;77.90;;;;;;5018907;28;20021;-75
2022/05/05 09:01:22;;;;;;;6.20;3.30;;;16.20;78.10;;;;;;5035760;28;20021;-75
2022/05/05 09:03:47;;;;;;;7.18;3.65;;;16.10;78.00;;;;;;5035485;28;20026;-75
2022/05/05 09:06:13;;;;;;;7.72;3.42;;;16.20;78.10;;;;;;5017224;28;20093;-75
2022/05/05 09:08:38;;;;;;;7.38;3.40;;;16.20;78.00;;;;;;5035391;28;20026;-75
2022/05/05 09:11:06;;;;;;;8.07;3.80;;;16.20;78.00;;;;;;5035244;28;20084;-75
2022/05/05 09:13:34;;;;;;;7.95;3.40;;;16.20;78.00;;;;;;5017611;28;20025;-76
2022/05/05 09:16:02;;;;;;;8.73;3.58;;;16.20;77.90;;;;;;5034888;28;20486;-75
2022/05/05 09:18:29;;;;;;;8.07;3.67;;;16.20;77.80;;;;;;5035110;28;20105;-76
2022/05/05 09:20:56;;;;;;;8.85;3.40;;;16.20;77.80;;;;;;5017666;28;20078;-77
2022/05/05 09:26:35;;;;;;;7.15;3.28;;;16.30;77.90;;;;;;5035146;28;20118;-77
2022/05/05 09:29:18;;;;;;;6.78;3.72;;;16.30;77.80;;;;;;5017502;28;20030;-77
2022/05/05 09:31:43;;;;;;;9.27;3.50;;;16.30;77.80;;;;;;5035057;28;20113;-77
2022/05/05 09:34:18;;;;;;;6.93;3.50;;;16.30;77.70;;;;;;5017337;28;20045;-78
2022/05/05 09:36:43;;;;;;;7.57;3.47;;;16.40;77.70;;;;;;5017206;28;20029;-77
2022/05/05 09:39:10;;;;;;;5.43;3.20;;;16.30;77.60;;;;;;5034984;28;20475;-77
2022/05/05 09:41:44;;;;;;;6.00;3.35;;;16.40;77.60;;;;;;5017293;28;20509;-77
2022/05/05 09:44:16;;;;;;;7.43;3.50;;;16.40;77.50;;;;;;5016721;28;20025;-79
2022/05/05 09:46:45;;;;;;;7.65;3.30;;;16.40;77.40;;;;;;5034380;28;20013;-78
2022/05/05 09:49:19;;;;;;;9.02;3.65;;;16.40;77.40;;;;;;5017165;28;20384;-78
2022/05/05 09:57:39;;;;;;;5.97;3.45;;;16.40;77.40;;;;;;5034424;28;20025;-79
2022/05/05 09:57:41;;;;;;;7.35;3.10;;;16.50;77.20;;;;;;5034963;28;20090;-78
2022/05/05 10:00:23;;;;;;;5.57;3.25;;;16.50;77.00;;;;;;5034621;28;20395;-77
2022/05/05 10:05:40;;;;;;;6.40;3.25;;;16.50;76.90;;;;;;5034274;28;20466;-76
2022/05/05 10:08:07;;;;;;;5.22;3.20;;;16.50;76.90;;;;;;5016439;28;20156;-77
2022/05/05 10:10:32;;;;;;;6.80;3.72;;;16.50;76.70;;;;;;5016855;28;20505;-76
2022/05/05 10:12:58;;;;;;;5.80;3.08;;;16.50;76.90;;;;;;5016432;28;20108;-76
2022/05/05 10:15:25;;;;;;;7.10;3.50;;;16.50;77.10;;;;;;5016032;28;20026;-75
2022/05/05 10:17:51;;;;;;;5.97;3.20;;;16.50;77.20;;;;;;5016356;28;20139;-76
2022/05/05 10:20:17;;;;;;;5.15;3.13;;;16.50;77.30;;;;;;5016424;28;20025;-77
2022/05/05 10:23:07;;;;;;;5.90;3.30;;;16.50;77.40;;;;;;5016222;28;20074;-75
2022/05/05 10:25:37;;;;;;;;;;;16.40;77.40;;;;;;5016489;28;20035;-75
2022/05/05 10:28:03;;;;;;;5.22;3.10;;;16.50;77.40;;;;;;5016050;28;19959;-75
2022/05/05 10:30:36;;;;;;;7.25;3.42;;;16.50;77.40;;;;;;5033817;28;20033;-75
2022/05/05 10:33:08;;;;;;;5.78;3.00;;;16.50;77.40;;;;;;5034066;28;20163;-75
2022/05/05 10:35:42;;;;;;;6.53;3.35;;;16.50;77.30;;;;;;5015814;28;20048;-77
2022/05/05 10:38:40;;;;;;;6.35;3.47;;;16.50;77.40;;;;;;5015983;28;20458;-75
2022/05/05 10:41:35;;;;;;;5.70;2.90;;;16.50;77.40;;;;;;5018208;28;20645;-75
2022/05/05 10:44:20;;;;;;;5.10;3.00;;;16.50;77.40;;;;;;5032992;28;20347;-76
2022/05/05 10:47:03;;;;;;;5.40;3.15;;;16.50;77.40;;;;;;5015531;28;20045;-75
2022/05/05 10:49:37;;;;;;;5.82;3.13;;;16.50;77.40;;;;;;5015711;28;20029;-78
2022/05/05 10:52:11;;;;;;;6.53;3.15;;;16.50;77.40;;;;;;5015739;28;20029;-78
2022/05/05 10:54:44;;;;;;;5.50;3.13;;;16.50;77.50;;;;;;5015487;28;20523;-75
2022/05/05 10:57:25;;;;;;;5.25;3.13;;;16.50;77.50;;;;;;5015492;28;20029;-76
2022/05/05 11:00:19;;;;;;;5.18;3.15;;;16.50;77.50;;;;;;5033336;28;20111;-76
2022/05/05 11:03:03;;;;;;;6.18;3.45;;;16.50;77.50;;;;;;5032635;28;20033;-78
2022/05/05 11:05:32;;;;;;;5.93;3.08;;;16.50;77.50;;;;;;5033084;28;20029;-78
2022/05/05 11:08:07;;;;;;;6.20;3.13;;;16.50;77.50;;;;;;5033022;28;20029;-77
2022/05/05 11:10:42;;;;;;;5.90;3.20;;;16.50;77.40;;;;;;5015691;28;20025;-77
2022/05/05 11:13:28;;;;;;;5.25;3.20;;;16.50;77.30;;;;;;5015534;28;20053;-78
2022/05/05 11:21:36;;;;;;;4.78;2.90;;;16.60;77.10;;;;;;5032930;28;20036;-78
2022/05/05 11:24:02;;;;;;;5.18;3.10;;;16.70;77.10;;;;;;5034043;28;20119;-79
2022/05/05 11:26:29;;;;;;;5.80;3.40;;;16.60;76.90;;;;;;5014814;28;20068;-78
2022/05/05 11:28:58;;;;;;;5.35;2.97;;;16.60;77.00;;;;;;5032750;28;20097;-78
2022/05/05 11:31:30;;;;;;;5.82;3.20;;;16.60;77.30;;;;;;5015141;28;20022;-78
2022/05/05 11:34:00;;;;;;;5.50;3.03;;;16.50;77.40;;;;;;5035155;28;20082;-78
2022/05/05 11:36:32;;;;;;;5.55;3.03;;;16.50;77.40;;;;;;5052359;28;20021;-78
2022/05/05 11:38:59;;;;;;;5.38;3.17;;;16.50;77.60;;;;;;5052449;28;20502;-78
2022/05/05 11:41:25;;;;;;;5.43;3.17;;;16.50;77.70;;;;;;5052687;28;20025;-78
2022/05/05 11:46:36;;;;;;;5.40;3.17;;;16.50;77.80;;;;;;5052441;28;20086;-78
2022/05/05 11:49:02;;;;;;;4.85;3.00;;;16.50;77.90;;;;;;5034649;28;20021;-78
2022/05/05 11:51:30;;;;;;;5.43;2.90;;;16.40;77.90;;;;;;5052335;28;20025;-77
2022/05/05 11:54:06;;;;;;;4.78;2.72;;;16.50;78.00;;;;;;5052444;28;20074;-78
2022/05/05 11:56:33;;;;;;;6.22;2.85;;;16.40;77.90;;;;;;5052127;28;20394;-78
2022/05/05 12:01:58;;;;;;;4.93;2.90;;;16.40;77.90;;;;;;5052653;28;20031;-79
2022/05/05 12:04:23;;;;;;;5.05;2.90;;;16.40;78.00;;;;;;5052424;28;20035;-78
2022/05/05 12:06:49;;;;;;;5.40;3.13;;;16.40;78.00;;;;;;5033892;28;20507;-77
2022/05/05 12:09:15;;;;;;;5.03;2.72;;;16.40;78.00;;;;;;5052391;28;20466;-78
2022/05/05 12:11:42;;;;;;;5.97;3.38;;;16.40;78.10;;;;;;5034471;28;20082;-78
2022/05/05 12:14:09;;;;;;;5.05;2.95;;;16.40;78.10;;;;;;5034671;28;20474;-78
2022/05/05 12:16:36;;;;;;;4.43;2.90;;;16.40;78.20;;;;;;5032356;28;20159;-78
2022/05/05 12:19:17;;;;;;;6.22;3.20;;;16.40;78.20;;;;;;5036591;28;20036;-77
2022/05/05 12:21:51;;;;;;;;;;;16.40;78.20;;;;;;5023149;28;20482;-79
2022/05/05 12:24:20;;;;;;;4.82;2.85;;;16.40;78.20;;;;;;5023675;28;19905;-78
2022/05/05 12:26:45;;;;;;;4.75;2.90;;;16.40;78.00;;;;;;5031733;28;20029;-78
2022/05/05 12:29:15;;;;;;;5.10;2.88;;;16.50;77.90;;;;;;5014435;28;20032;-78
2022/05/05 12:31:57;;;;;;;5.65;3.40;;;16.50;77.80;;;;;;5014314;28;20653;-78
2022/05/05 12:34:27;;;;;;;5.45;2.95;;;16.50;77.60;;;;;;5031333;28;20640;-77
2022/05/05 12:37:11;;;;;;;4.60;2.90;;;16.50;77.50;;;;;;5031746;28;20032;-77
2022/05/05 12:40:01;;;;;;;5.25;3.05;;;16.50;77.50;;;;;;5014194;28;20029;-77
2022/05/05 12:42:39;;;;;;;;;;;16.40;77.70;;;;;;5033247;28;20071;-79
2022/05/05 12:45:16;;;;;;;4.75;2.75;;;16.40;77.90;;;;;;5033096;28;19909;-78
2022/05/05 12:47:44;;;;;;;5.20;3.00;;;16.40;78.20;;;;;;5034149;28;20082;-78
2022/05/05 12:50:29;;;;;;;4.95;2.95;;;16.30;78.20;;;;;;5015609;28;20034;-78
2022/05/05 13:01:08;;;;;;;4.38;2.78;;;16.30;78.70;;;;;;5034086;28;20048;-78
2022/05/05 13:03:35;;;;;;;4.80;2.90;;;16.30;78.70;;;;;;5033357;28;20037;-78
2022/05/05 13:06:00;;;;;;;4.22;2.63;;;16.30;78.70;;;;;;5032410;28;20566;-78
2022/05/05 13:08:26;;;;;;;4.55;2.83;;;16.30;78.80;;;;;;5032899;28;20040;-79
2022/05/05 13:10:51;;;;;;;4.30;2.60;;;16.30;78.80;;;;;;5032674;28;20029;-79
2022/05/05 13:13:17;;;;;;;4.40;2.63;;;16.30;78.80;;;;;;5032745;28;20033;-78
2022/05/05 13:15:42;;;;;;;4.93;2.63;;;16.20;78.80;;;;;;5014534;28;20075;-78
2022/05/05 13:18:08;;;;;;;4.38;2.70;;;16.20;78.80;;;;;;5032834;28;20025;-79
2022/05/05 13:20:34;;;;;;;4.50;2.78;;;16.20;78.90;;;;;;5014618;28;20112;-79
2022/05/05 13:23:00;;;;;;;5.25;3.05;;;16.20;78.90;;;;;;5033080;28;20037;-78
2022/05/05 13:25:26;;;;;;;4.43;2.70;;;16.10;78.90;;;;;;5034042;28;20051;-78
2022/05/05 13:27:53;;;;;;;4.93;2.80;;;16.20;79.00;;;;;;5040556;28;20025;-79
2022/05/05 13:30:19;;;;;;;5.20;2.90;;;16.20;79.10;;;;;;5030951;28;20021;-79
2022/05/05 13:32:44;;;;;;;4.45;2.80;;;16.10;79.10;;;;;;5033165;28;20051;-78
2022/05/05 13:35:10;;;;;;;4.82;3.00;;;16.20;79.10;;;;;;5024552;28;20036;-80
2022/05/05 13:37:37;;;;;;;4.82;2.67;;;16.20;79.00;;;;;;5013250;28;20037;-78
2022/05/05 13:40:06;;;;;;;4.97;2.67;;;16.20;78.90;;;;;;5013272;28;20892;-77
2022/05/05 13:42:32;;;;;;;4.88;2.65;;;16.20;78.70;;;;;;5031507;28;20025;-79
2022/05/05 13:44:58;;;;;;;4.80;2.83;;;16.20;78.70;;;;;;5013320;28;20033;-77
2022/05/05 13:47:24;;;;;;;5.43;2.90;;;16.30;78.70;;;;;;5013281;28;20041;-79
2022/05/05 13:49:49;;;;;;;4.90;2.70;;;16.20;78.60;;;;;;5031133;28;20032;-79
2022/05/05 13:52:15;;;;;;;4.30;2.80;;;16.20;78.60;;;;;;5031101;28;20030;-79
2022/05/05 13:54:40;;;;;;;4.57;2.80;;;16.20;78.60;;;;;;5031091;28;20390;-78